Bernice Lind — WDC8364 — position and weather

sailwx.info

Track history (hours):
 
Tides and Currents Weather Stations Pressure Air Temp Water Temp Dewpoint Dewpoint Depression Visibility Wind Speed Wind Dir Waves Ship Positions

Bernice Lind

Owner: Riverview Equipment Company, LLC, Petaluma, CA. More information available from US FCC via Universal Licensing System and Coast Guard Vessel Documentation Center.

Last reported at 2015-Apr-18 10:33 UTC. Time now 2015-Apr-19 14:08 UTC.
Position N 38°13' W 122°36'.

Length 20 m; draft 3 m.

Type: Towing. MMSI: 367085890.

Date/timePositionNaut miles runAvg speedWind from/ knotsBaromVisibWave heightAir tempDewpointWater temp
2015-Apr-18 10:33N 38°13' W 122°36'0 0.0
2015-Apr-18 09:33N 38°13' W 122°36'0 0.0
2015-Apr-18 08:33N 38°13' W 122°36'0 0.0
2015-Apr-18 07:33N 38°13' W 122°36'1 0.5
2015-Apr-18 06:33N 38°13' W 122°36'4 3.8
2015-Apr-18 05:33N 38°11' W 122°32'4 4.2
2015-Apr-18 04:33N 38°07' W 122°30'4 4.2
2015-Apr-18 03:33N 38°04' W 122°26'3 3.5
2015-Apr-18 02:33N 38°02' W 122°22'5 5.4
2015-Apr-18 01:33N 38°04' W 122°16'7 6.6
2015-Apr-18 00:33N 38°02' W 122°08'7 1.0
2015-Apr-17 17:32N 38°04' W 121°59'0 0.0
2015-Apr-17 16:32N 38°04' W 121°59'0 0.0
2015-Apr-17 14:19N 38°04' W 121°59'0 0.0
2015-Apr-17 13:32N 38°04' W 121°59'0 0.0
2015-Apr-17 12:25N 38°04' W 121°59'0 0.0
2015-Apr-17 11:29N 38°04' W 121°59'0 0.4
2015-Apr-17 10:33N 38°04' W 121°60'6 6.2
2015-Apr-17 09:33N 38°02' W 122°07'6 5.9
2015-Apr-17 08:33N 38°04' W 122°15'2 1.8
2015-Apr-17 07:31N 38°06' W 122°16'0 0.3
2015-Apr-17 06:32N 38°06' W 122°16'3 3.2
2015-Apr-17 05:33N 38°04' W 122°13'3 2.5
2015-Apr-17 04:30N 38°02' W 122°10'4 0.3
2015-Apr-16 12:33N 38°05' W 122°15'  
2015-Apr-13 00:24N 38°06' W 122°16'0 0.1
2015-Apr-12 17:15N 38°06' W 122°16'0 0.1
2015-Apr-12 16:33N 38°06' W 122°16'0 0.0
2015-Apr-11 23:30N 38°06' W 122°16'0 0.0
2015-Apr-11 20:25N 38°06' W 122°16'0 0.0
2015-Apr-11 17:13N 38°06' W 122°16'0 0.1
2015-Apr-11 16:32N 38°06' W 122°16'0 0.0
2015-Apr-11 14:21N 38°06' W 122°16'0 0.0
2015-Apr-11 13:31N 38°06' W 122°16'0 0.0
2015-Apr-10 23:29N 38°06' W 122°16'2 0.1
2015-Apr-09 17:30N 38°04' W 122°16'1 1.4
2015-Apr-09 16:33N 38°04' W 122°14'2 1.1
2015-Apr-09 14:29N 38°06' W 122°16'0 0.0
2015-Apr-08 21:10N 38°06' W 122°16'0 0.1
2015-Apr-08 20:32N 38°06' W 122°16'3 3.1
2015-Apr-08 19:33N 38°03' W 122°18'5 5.2
2015-Apr-08 18:32N 38°03' W 122°25'5 5.0
2015-Apr-08 17:33N 38°07' W 122°29'5 4.8
2015-Apr-08 16:33N 38°11' W 122°32'4 3.8
2015-Apr-08 15:33N 38°13' W 122°36'0 0.5
2015-Apr-08 14:33N 38°14' W 122°36'0 0.0
2015-Apr-08 13:33N 38°14' W 122°36'0 0.0
2015-Apr-08 12:33N 38°14' W 122°36'0 0.0
2015-Apr-08 11:33N 38°14' W 122°36'  
Track history (hours):
 
Tides and Currents Weather Stations Pressure Air Temp Water Temp Dewpoint Dewpoint Depression Visibility Wind Speed Wind Dir Waves Ship Positions

Bernice Lind

Owner: Riverview Equipment Company, LLC, Petaluma, CA. More information available from US FCC via Universal Licensing System and Coast Guard Vessel Documentation Center.

Last reported at 2015-Apr-18 10:33 UTC. Time now 2015-Apr-19 14:08 UTC.
Position N 38°13' W 122°36'.

Length 20 m; draft 3 m.

Type: Towing. MMSI: 367085890.

Date/timePositionNaut miles runAvg speedWind from/ knotsBaromVisibWave heightAir tempDewpointWater temp
2015-Apr-18 10:33N 38°13' W 122°36'0 0.0
2015-Apr-18 09:33N 38°13' W 122°36'0 0.0
2015-Apr-18 08:33N 38°13' W 122°36'0 0.0
2015-Apr-18 07:33N 38°13' W 122°36'1 0.5
2015-Apr-18 06:33N 38°13' W 122°36'4 3.8
2015-Apr-18 05:33N 38°11' W 122°32'4 4.2
2015-Apr-18 04:33N 38°07' W 122°30'4 4.2
2015-Apr-18 03:33N 38°04' W 122°26'3 3.5
2015-Apr-18 02:33N 38°02' W 122°22'5 5.4
2015-Apr-18 01:33N 38°04' W 122°16'7 6.6
2015-Apr-18 00:33N 38°02' W 122°08'7 1.0
2015-Apr-17 17:32N 38°04' W 121°59'0 0.0
2015-Apr-17 16:32N 38°04' W 121°59'0 0.0
2015-Apr-17 14:19N 38°04' W 121°59'0 0.0
2015-Apr-17 13:32N 38°04' W 121°59'0 0.0
2015-Apr-17 12:25N 38°04' W 121°59'0 0.0
2015-Apr-17 11:29N 38°04' W 121°59'0 0.4
2015-Apr-17 10:33N 38°04' W 121°60'6 6.2
2015-Apr-17 09:33N 38°02' W 122°07'6 5.9
2015-Apr-17 08:33N 38°04' W 122°15'2 1.8
2015-Apr-17 07:31N 38°06' W 122°16'0 0.3
2015-Apr-17 06:32N 38°06' W 122°16'3 3.2
2015-Apr-17 05:33N 38°04' W 122°13'3 2.5
2015-Apr-17 04:30N 38°02' W 122°10'4 0.3
2015-Apr-16 12:33N 38°05' W 122°15'  
2015-Apr-13 00:24N 38°06' W 122°16'0 0.1
2015-Apr-12 17:15N 38°06' W 122°16'0 0.1
2015-Apr-12 16:33N 38°06' W 122°16'0 0.0
2015-Apr-11 23:30N 38°06' W 122°16'0 0.0
2015-Apr-11 20:25N 38°06' W 122°16'0 0.0
2015-Apr-11 17:13N 38°06' W 122°16'0 0.1
2015-Apr-11 16:32N 38°06' W 122°16'0 0.0
2015-Apr-11 14:21N 38°06' W 122°16'0 0.0
2015-Apr-11 13:31N 38°06' W 122°16'0 0.0
2015-Apr-10 23:29N 38°06' W 122°16'2 0.1
2015-Apr-09 17:30N 38°04' W 122°16'1 1.4
2015-Apr-09 16:33N 38°04' W 122°14'2 1.1
2015-Apr-09 14:29N 38°06' W 122°16'0 0.0
2015-Apr-08 21:10N 38°06' W 122°16'0 0.1
2015-Apr-08 20:32N 38°06' W 122°16'3 3.1
2015-Apr-08 19:33N 38°03' W 122°18'5 5.2
2015-Apr-08 18:32N 38°03' W 122°25'5 5.0
2015-Apr-08 17:33N 38°07' W 122°29'5 4.8
2015-Apr-08 16:33N 38°11' W 122°32'4 3.8
2015-Apr-08 15:33N 38°13' W 122°36'0 0.5
2015-Apr-08 14:33N 38°14' W 122°36'0 0.0
2015-Apr-08 13:33N 38°14' W 122°36'0 0.0
2015-Apr-08 12:33N 38°14' W 122°36'0 0.0
2015-Apr-08 11:33N 38°14' W 122°36'  

Dump ship's entire track history